sensor_id;sensor_type;location;lat;lon;timestamp;temperature;humidity
22714;DHT22;11524;50.846;4.326;2022-10-16T00:01:46;21.30;61.60
22714;DHT22;11524;50.846;4.326;2022-10-16T00:04:12;21.30;61.60
22714;DHT22;11524;50.846;4.326;2022-10-16T00:06:38;21.30;61.60
22714;DHT22;11524;50.846;4.326;2022-10-16T00:09:04;21.30;61.60
22714;DHT22;11524;50.846;4.326;2022-10-16T00:11:33;21.30;61.90
22714;DHT22;11524;50.846;4.326;2022-10-16T00:14:00;21.30;61.70
22714;DHT22;11524;50.846;4.326;2022-10-16T00:16:28;21.30;62.10
22714;DHT22;11524;50.846;4.326;2022-10-16T00:18:54;21.30;62.10
22714;DHT22;11524;50.846;4.326;2022-10-16T00:21:22;21.30;61.50
22714;DHT22;11524;50.846;4.326;2022-10-16T00:23:52;21.30;61.90
22714;DHT22;11524;50.846;4.326;2022-10-16T00:26:19;21.30;61.80
22714;DHT22;11524;50.846;4.326;2022-10-16T00:28:46;21.30;62.20
22714;DHT22;11524;50.846;4.326;2022-10-16T00:31:13;21.30;61.80
22714;DHT22;11524;50.846;4.326;2022-10-16T00:33:39;21.30;61.80
22714;DHT22;11524;50.846;4.326;2022-10-16T00:36:07;21.30;62.20
22714;DHT22;11524;50.846;4.326;2022-10-16T00:38:33;21.30;61.60
22714;DHT22;11524;50.846;4.326;2022-10-16T00:40:59;21.30;61.70
22714;DHT22;11524;50.846;4.326;2022-10-16T00:43:44;21.30;62.30
22714;DHT22;11524;50.846;4.326;2022-10-16T00:48:36;21.30;62.10
22714;DHT22;11524;50.846;4.326;2022-10-16T00:51:02;21.30;62.30
22714;DHT22;11524;50.846;4.326;2022-10-16T00:53:28;21.30;62.10
22714;DHT22;11524;50.846;4.326;2022-10-16T00:55:54;21.30;61.90
22714;DHT22;11524;50.846;4.326;2022-10-16T00:58:20;21.30;62.30
22714;DHT22;11524;50.846;4.326;2022-10-16T01:00:46;21.30;62.10
22714;DHT22;11524;50.846;4.326;2022-10-16T01:06:09;21.30;62.60
22714;DHT22;11524;50.846;4.326;2022-10-16T01:08:49;21.30;61.90
22714;DHT22;11524;50.846;4.326;2022-10-16T01:14:02;21.30;62.10
22714;DHT22;11524;50.846;4.326;2022-10-16T01:16:45;21.20;62.10
22714;DHT22;11524;50.846;4.326;2022-10-16T01:19:25;21.30;61.90
22714;DHT22;11524;50.846;4.326;2022-10-16T01:21:55;21.30;61.80
22714;DHT22;11524;50.846;4.326;2022-10-16T01:24:40;21.30;61.90
22714;DHT22;11524;50.846;4.326;2022-10-16T01:27:26;21.30;61.70
22714;DHT22;11524;50.846;4.326;2022-10-16T01:29:59;21.30;62.30
22714;DHT22;11524;50.846;4.326;2022-10-16T01:35:30;21.20;61.90
22714;DHT22;11524;50.846;4.326;2022-10-16T01:40:28;21.20;62.00
22714;DHT22;11524;50.846;4.326;2022-10-16T01:43:20;21.20;62.10
22714;DHT22;11524;50.846;4.326;2022-10-16T01:45:45;21.20;65.00
22714;DHT22;11524;50.846;4.326;2022-10-16T01:48:14;21.30;65.70
22714;DHT22;11524;50.846;4.326;2022-10-16T01:50:43;21.30;65.70
22714;DHT22;11524;50.846;4.326;2022-10-16T01:53:12;21.30;65.30
22714;DHT22;11524;50.846;4.326;2022-10-16T01:55:41;21.30;65.70
22714;DHT22;11524;50.846;4.326;2022-10-16T01:58:12;21.40;65.50
22714;DHT22;11524;50.846;4.326;2022-10-16T02:00:41;21.40;65.50
22714;DHT22;11524;50.846;4.326;2022-10-16T02:03:08;21.40;65.40
22714;DHT22;11524;50.846;4.326;2022-10-16T02:05:49;21.40;65.70
22714;DHT22;11524;50.846;4.326;2022-10-16T02:08:15;21.40;66.10
22714;DHT22;11524;50.846;4.326;2022-10-16T02:10:41;21.40;65.90
22714;DHT22;11524;50.846;4.326;2022-10-16T02:13:24;21.40;66.40
22714;DHT22;11524;50.846;4.326;2022-10-16T02:15:51;21.30;62.60
22714;DHT22;11524;50.846;4.326;2022-10-16T02:18:16;21.30;62.20
22714;DHT22;11524;50.846;4.326;2022-10-16T02:26:04;21.30;62.80
22714;DHT22;11524;50.846;4.326;2022-10-16T02:28:40;21.30;62.20
22714;DHT22;11524;50.846;4.326;2022-10-16T02:31:10;21.20;62.30
22714;DHT22;11524;50.846;4.326;2022-10-16T02:33:38;21.20;62.50
22714;DHT22;11524;50.846;4.326;2022-10-16T02:36:05;21.20;62.30
22714;DHT22;11524;50.846;4.326;2022-10-16T02:38:32;21.20;62.80
22714;DHT22;11524;50.846;4.326;2022-10-16T02:40:58;21.20;62.90
22714;DHT22;11524;50.846;4.326;2022-10-16T02:43:25;21.20;62.40
22714;DHT22;11524;50.846;4.326;2022-10-16T02:45:51;21.20;62.60
22714;DHT22;11524;50.846;4.326;2022-10-16T02:48:16;21.20;62.20
22714;DHT22;11524;50.846;4.326;2022-10-16T02:50:42;21.20;62.20
22714;DHT22;11524;50.846;4.326;2022-10-16T02:53:08;21.20;61.90
22714;DHT22;11524;50.846;4.326;2022-10-16T02:55:33;21.20;62.00
22714;DHT22;11524;50.846;4.326;2022-10-16T02:57:59;21.20;62.30
22714;DHT22;11524;50.846;4.326;2022-10-16T03:00:24;21.20;62.00
22714;DHT22;11524;50.846;4.326;2022-10-16T03:02:50;21.20;61.80
22714;DHT22;11524;50.846;4.326;2022-10-16T03:05:16;21.20;62.20
22714;DHT22;11524;50.846;4.326;2022-10-16T03:07:42;21.20;61.90
22714;DHT22;11524;50.846;4.326;2022-10-16T03:10:08;21.20;62.60
22714;DHT22;11524;50.846;4.326;2022-10-16T03:12:33;21.20;61.90
22714;DHT22;11524;50.846;4.326;2022-10-16T03:14:59;21.20;63.10
22714;DHT22;11524;50.846;4.326;2022-10-16T03:17:25;21.20;63.20
22714;DHT22;11524;50.846;4.326;2022-10-16T03:19:51;21.20;62.60
22714;DHT22;11524;50.846;4.326;2022-10-16T03:22:16;21.20;62.50
22714;DHT22;11524;50.846;4.326;2022-10-16T03:24:42;21.20;62.50
22714;DHT22;11524;50.846;4.326;2022-10-16T03:27:08;21.20;62.70
22714;DHT22;11524;50.846;4.326;2022-10-16T03:29:33;21.20;62.50
22714;DHT22;11524;50.846;4.326;2022-10-16T03:31:59;21.20;62.50
22714;DHT22;11524;50.846;4.326;2022-10-16T03:34:25;21.20;62.50
22714;DHT22;11524;50.846;4.326;2022-10-16T03:36:51;21.20;62.20
22714;DHT22;11524;50.846;4.326;2022-10-16T03:39:17;21.20;62.50
22714;DHT22;11524;50.846;4.326;2022-10-16T03:41:42;21.10;62.40
22714;DHT22;11524;50.846;4.326;2022-10-16T03:44:08;21.10;62.60
22714;DHT22;11524;50.846;4.326;2022-10-16T03:46:33;21.10;62.60
22714;DHT22;11524;50.846;4.326;2022-10-16T03:48:59;21.10;62.60
22714;DHT22;11524;50.846;4.326;2022-10-16T03:51:24;21.10;62.60
22714;DHT22;11524;50.846;4.326;2022-10-16T03:53:50;21.10;62.60
22714;DHT22;11524;50.846;4.326;2022-10-16T03:56:16;21.20;62.90
22714;DHT22;11524;50.846;4.326;2022-10-16T03:58:41;21.10;62.70
22714;DHT22;11524;50.846;4.326;2022-10-16T04:01:07;21.10;62.50
22714;DHT22;11524;50.846;4.326;2022-10-16T04:03:33;21.10;62.70
22714;DHT22;11524;50.846;4.326;2022-10-16T04:05:58;21.10;62.60
22714;DHT22;11524;50.846;4.326;2022-10-16T04:08:24;21.20;62.90
22714;DHT22;11524;50.846;4.326;2022-10-16T04:10:50;21.10;62.40
22714;DHT22;11524;50.846;4.326;2022-10-16T04:13:15;21.10;62.70
22714;DHT22;11524;50.846;4.326;2022-10-16T04:15:41;21.10;63.10
22714;DHT22;11524;50.846;4.326;2022-10-16T04:18:07;21.10;62.70
22714;DHT22;11524;50.846;4.326;2022-10-16T04:20:33;21.10;62.40
22714;DHT22;11524;50.846;4.326;2022-10-16T04:22:59;21.10;62.50
22714;DHT22;11524;50.846;4.326;2022-10-16T04:25:25;21.10;62.40
22714;DHT22;11524;50.846;4.326;2022-10-16T04:27:52;21.10;62.70
22714;DHT22;11524;50.846;4.326;2022-10-16T04:30:18;21.10;62.50
22714;DHT22;11524;50.846;4.326;2022-10-16T04:32:48;21.10;62.60
22714;DHT22;11524;50.846;4.326;2022-10-16T04:35:14;21.10;62.10
22714;DHT22;11524;50.846;4.326;2022-10-16T04:37:39;21.10;62.60
22714;DHT22;11524;50.846;4.326;2022-10-16T04:40:05;21.10;62.50
22714;DHT22;11524;50.846;4.326;2022-10-16T04:42:31;21.10;62.60
22714;DHT22;11524;50.846;4.326;2022-10-16T04:44:56;21.10;62.50
22714;DHT22;11524;50.846;4.326;2022-10-16T04:47:22;21.10;62.40
22714;DHT22;11524;50.846;4.326;2022-10-16T04:49:47;21.00;62.30
22714;DHT22;11524;50.846;4.326;2022-10-16T04:52:13;21.10;62.20
22714;DHT22;11524;50.846;4.326;2022-10-16T04:54:38;21.10;62.50
22714;DHT22;11524;50.846;4.326;2022-10-16T04:57:04;21.10;62.40
22714;DHT22;11524;50.846;4.326;2022-10-16T04:59:30;21.00;62.50
22714;DHT22;11524;50.846;4.326;2022-10-16T05:01:56;21.00;62.20
22714;DHT22;11524;50.846;4.326;2022-10-16T05:04:21;21.10;62.10
22714;DHT22;11524;50.846;4.326;2022-10-16T05:06:48;21.00;62.80
22714;DHT22;11524;50.846;4.326;2022-10-16T05:09:13;21.00;62.70
22714;DHT22;11524;50.846;4.326;2022-10-16T05:11:39;21.00;62.70
22714;DHT22;11524;50.846;4.326;2022-10-16T05:14:04;21.00;63.00
22714;DHT22;11524;50.846;4.326;2022-10-16T05:16:30;21.00;62.40
22714;DHT22;11524;50.846;4.326;2022-10-16T05:18:56;21.00;62.40
22714;DHT22;11524;50.846;4.326;2022-10-16T05:21:22;21.10;62.50
22714;DHT22;11524;50.846;4.326;2022-10-16T05:23:48;21.10;62.50
22714;DHT22;11524;50.846;4.326;2022-10-16T05:26:13;21.10;63.10
22714;DHT22;11524;50.846;4.326;2022-10-16T05:28:39;21.00;62.70
22714;DHT22;11524;50.846;4.326;2022-10-16T05:31:06;21.00;63.50
22714;DHT22;11524;50.846;4.326;2022-10-16T05:33:32;21.00;62.90
22714;DHT22;11524;50.846;4.326;2022-10-16T05:36:04;21.10;62.90
22714;DHT22;11524;50.846;4.326;2022-10-16T05:38:31;21.00;62.50
22714;DHT22;11524;50.846;4.326;2022-10-16T05:40:57;21.10;62.40
22714;DHT22;11524;50.846;4.326;2022-10-16T05:43:23;21.00;62.50
22714;DHT22;11524;50.846;4.326;2022-10-16T05:46:00;21.00;62.70
22714;DHT22;11524;50.846;4.326;2022-10-16T05:48:26;21.00;62.10
22714;DHT22;11524;50.846;4.326;2022-10-16T05:51:00;21.00;62.20
22714;DHT22;11524;50.846;4.326;2022-10-16T05:53:31;21.00;62.20
22714;DHT22;11524;50.846;4.326;2022-10-16T05:55:57;21.00;62.40
22714;DHT22;11524;50.846;4.326;2022-10-16T05:58:24;21.00;62.70
22714;DHT22;11524;50.846;4.326;2022-10-16T06:01:14;21.00;62.90
22714;DHT22;11524;50.846;4.326;2022-10-16T06:03:39;21.00;62.50
22714;DHT22;11524;50.846;4.326;2022-10-16T06:06:17;21.00;62.20
22714;DHT22;11524;50.846;4.326;2022-10-16T06:08:44;21.00;68.30
22714;DHT22;11524;50.846;4.326;2022-10-16T06:11:14;21.10;68.60
22714;DHT22;11524;50.846;4.326;2022-10-16T06:13:40;21.00;69.10
22714;DHT22;11524;50.846;4.326;2022-10-16T06:16:11;21.10;68.80
22714;DHT22;11524;50.846;4.326;2022-10-16T06:18:38;21.20;64.20
22714;DHT22;11524;50.846;4.326;2022-10-16T06:21:11;21.10;62.90
22714;DHT22;11524;50.846;4.326;2022-10-16T06:23:38;21.10;62.60
22714;DHT22;11524;50.846;4.326;2022-10-16T06:26:12;21.10;62.90
22714;DHT22;11524;50.846;4.326;2022-10-16T06:28:38;21.10;62.50
22714;DHT22;11524;50.846;4.326;2022-10-16T06:31:06;21.10;62.60
22714;DHT22;11524;50.846;4.326;2022-10-16T06:33:32;21.10;62.20
22714;DHT22;11524;50.846;4.326;2022-10-16T06:36:05;21.00;62.00
22714;DHT22;11524;50.846;4.326;2022-10-16T06:38:32;21.00;61.70
22714;DHT22;11524;50.846;4.326;2022-10-16T06:40:58;21.00;61.90
22714;DHT22;11524;50.846;4.326;2022-10-16T06:43:24;21.00;61.50
22714;DHT22;11524;50.846;4.326;2022-10-16T06:45:54;21.00;61.50
22714;DHT22;11524;50.846;4.326;2022-10-16T06:48:20;20.80;64.80
22714;DHT22;11524;50.846;4.326;2022-10-16T06:51:18;20.80;64.90
22714;DHT22;11524;50.846;4.326;2022-10-16T06:53:46;20.50;64.90
22714;DHT22;11524;50.846;4.326;2022-10-16T06:56:25;20.30;65.00
22714;DHT22;11524;50.846;4.326;2022-10-16T06:58:52;20.10;65.80
22714;DHT22;11524;50.846;4.326;2022-10-16T07:01:21;19.90;65.30
22714;DHT22;11524;50.846;4.326;2022-10-16T07:03:48;19.90;66.20
22714;DHT22;11524;50.846;4.326;2022-10-16T07:06:19;19.90;65.30
22714;DHT22;11524;50.846;4.326;2022-10-16T07:08:46;20.10;64.30
22714;DHT22;11524;50.846;4.326;2022-10-16T07:11:15;20.30;63.70
22714;DHT22;11524;50.846;4.326;2022-10-16T07:13:42;20.50;63.70
22714;DHT22;11524;50.846;4.326;2022-10-16T07:16:11;20.80;62.50
22714;DHT22;11524;50.846;4.326;2022-10-16T07:18:37;21.00;61.60
22714;DHT22;11524;50.846;4.326;2022-10-16T07:21:09;21.20;60.80
22714;DHT22;11524;50.846;4.326;2022-10-16T07:23:35;21.30;60.20
22714;DHT22;11524;50.846;4.326;2022-10-16T07:26:02;21.50;59.90
22714;DHT22;11524;50.846;4.326;2022-10-16T07:28:28;21.70;59.30
22714;DHT22;11524;50.846;4.326;2022-10-16T07:30:54;21.80;59.20
22714;DHT22;11524;50.846;4.326;2022-10-16T07:33:19;22.00;59.40
22714;DHT22;11524;50.846;4.326;2022-10-16T07:35:52;22.00;58.70
22714;DHT22;11524;50.846;4.326;2022-10-16T07:38:19;22.10;58.70
22714;DHT22;11524;50.846;4.326;2022-10-16T07:40:45;22.10;58.40
22714;DHT22;11524;50.846;4.326;2022-10-16T07:43:11;22.20;58.40
22714;DHT22;11524;50.846;4.326;2022-10-16T07:45:37;22.20;58.10
22714;DHT22;11524;50.846;4.326;2022-10-16T07:48:11;22.30;58.00
22714;DHT22;11524;50.846;4.326;2022-10-16T07:50:36;22.40;58.20
22714;DHT22;11524;50.846;4.326;2022-10-16T07:53:03;22.40;58.10
22714;DHT22;11524;50.846;4.326;2022-10-16T07:55:28;22.50;58.10
22714;DHT22;11524;50.846;4.326;2022-10-16T07:57:54;22.50;57.90
22714;DHT22;11524;50.846;4.326;2022-10-16T08:00:20;22.50;57.70
22714;DHT22;11524;50.846;4.326;2022-10-16T08:02:46;22.60;57.70
22714;DHT22;11524;50.846;4.326;2022-10-16T08:05:12;22.60;57.60
22714;DHT22;11524;50.846;4.326;2022-10-16T08:07:37;22.60;57.60
22714;DHT22;11524;50.846;4.326;2022-10-16T08:10:04;22.60;57.70
22714;DHT22;11524;50.846;4.326;2022-10-16T08:12:29;22.70;57.50
22714;DHT22;11524;50.846;4.326;2022-10-16T08:14:55;22.70;57.50
22714;DHT22;11524;50.846;4.326;2022-10-16T08:17:21;22.70;57.70
22714;DHT22;11524;50.846;4.326;2022-10-16T08:19:47;22.70;57.70
22714;DHT22;11524;50.846;4.326;2022-10-16T08:22:13;22.70;57.70
22714;DHT22;11524;50.846;4.326;2022-10-16T08:24:39;22.80;57.60
22714;DHT22;11524;50.846;4.326;2022-10-16T08:27:05;22.80;57.60
22714;DHT22;11524;50.846;4.326;2022-10-16T08:29:32;22.80;57.80
22714;DHT22;11524;50.846;4.326;2022-10-16T08:32:00;22.80;57.90
22714;DHT22;11524;50.846;4.326;2022-10-16T08:34:26;22.80;57.70
22714;DHT22;11524;50.846;4.326;2022-10-16T08:36:53;22.10;58.70
22714;DHT22;11524;50.846;4.326;2022-10-16T08:39:20;21.50;62.30
22714;DHT22;11524;50.846;4.326;2022-10-16T08:42:11;21.50;62.60
22714;DHT22;11524;50.846;4.326;2022-10-16T08:50:33;21.50;61.20
22714;DHT22;11524;50.846;4.326;2022-10-16T08:53:04;21.70;60.80
22714;DHT22;11524;50.846;4.326;2022-10-16T08:55:46;21.90;61.10
22714;DHT22;11524;50.846;4.326;2022-10-16T08:58:20;22.00;61.40
22714;DHT22;11524;50.846;4.326;2022-10-16T09:00:48;22.10;61.40
22714;DHT22;11524;50.846;4.326;2022-10-16T09:03:42;22.20;61.80
22714;DHT22;11524;50.846;4.326;2022-10-16T09:15:29;22.50;60.50
22714;DHT22;11524;50.846;4.326;2022-10-16T09:21:12;22.60;60.90
22714;DHT22;11524;50.846;4.326;2022-10-16T09:23:39;22.70;59.70
22714;DHT22;11524;50.846;4.326;2022-10-16T09:26:06;22.80;59.60
22714;DHT22;11524;50.846;4.326;2022-10-16T09:28:34;22.70;59.40
22714;DHT22;11524;50.846;4.326;2022-10-16T09:31:00;22.70;59.50
22714;DHT22;11524;50.846;4.326;2022-10-16T09:33:37;22.70;59.70
22714;DHT22;11524;50.846;4.326;2022-10-16T09:36:05;22.80;59.60
22714;DHT22;11524;50.846;4.326;2022-10-16T09:38:34;22.80;59.20
22714;DHT22;11524;50.846;4.326;2022-10-16T09:41:15;22.90;59.20
22714;DHT22;11524;50.846;4.326;2022-10-16T09:43:52;22.90;59.10
22714;DHT22;11524;50.846;4.326;2022-10-16T09:46:35;23.00;59.10
22714;DHT22;11524;50.846;4.326;2022-10-16T09:49:03;22.90;59.60
22714;DHT22;11524;50.846;4.326;2022-10-16T09:51:38;22.90;59.00
22714;DHT22;11524;50.846;4.326;2022-10-16T09:56:34;22.90;58.90
22714;DHT22;11524;50.846;4.326;2022-10-16T09:59:18;22.90;58.80
22714;DHT22;11524;50.846;4.326;2022-10-16T10:01:47;22.90;59.00
22714;DHT22;11524;50.846;4.326;2022-10-16T10:04:13;23.00;58.90
22714;DHT22;11524;50.846;4.326;2022-10-16T10:06:51;23.00;58.80
22714;DHT22;11524;50.846;4.326;2022-10-16T10:09:24;23.00;58.90
22714;DHT22;11524;50.846;4.326;2022-10-16T10:11:55;23.00;59.40
22714;DHT22;11524;50.846;4.326;2022-10-16T10:14:24;23.00;59.20
22714;DHT22;11524;50.846;4.326;2022-10-16T10:16:52;23.10;58.90
22714;DHT22;11524;50.846;4.326;2022-10-16T10:19:27;23.10;58.70
22714;DHT22;11524;50.846;4.326;2022-10-16T10:21:52;23.20;58.80
22714;DHT22;11524;50.846;4.326;2022-10-16T10:24:19;23.20;59.00
22714;DHT22;11524;50.846;4.326;2022-10-16T10:26:50;23.20;58.70
22714;DHT22;11524;50.846;4.326;2022-10-16T10:29:24;23.20;58.50
22714;DHT22;11524;50.846;4.326;2022-10-16T10:32:02;23.30;58.30
22714;DHT22;11524;50.846;4.326;2022-10-16T10:34:49;23.30;58.00
22714;DHT22;11524;50.846;4.326;2022-10-16T10:37:37;23.30;58.20
22714;DHT22;11524;50.846;4.326;2022-10-16T10:43:42;23.30;58.10
22714;DHT22;11524;50.846;4.326;2022-10-16T10:46:20;23.20;56.40
22714;DHT22;11524;50.846;4.326;2022-10-16T10:49:10;23.10;56.10
22714;DHT22;11524;50.846;4.326;2022-10-16T10:57:29;23.00;57.00
22714;DHT22;11524;50.846;4.326;2022-10-16T11:00:17;23.00;56.90
22714;DHT22;11524;50.846;4.326;2022-10-16T11:05:40;22.90;59.50
22714;DHT22;11524;50.846;4.326;2022-10-16T11:08:13;23.00;60.80
22714;DHT22;11524;50.846;4.326;2022-10-16T11:11:15;23.00;61.20
22714;DHT22;11524;50.846;4.326;2022-10-16T11:13:56;23.00;61.40
22714;DHT22;11524;50.846;4.326;2022-10-16T11:16:26;23.00;61.20
22714;DHT22;11524;50.846;4.326;2022-10-16T11:27:38;23.10;61.30
22714;DHT22;11524;50.846;4.326;2022-10-16T11:30:12;23.20;60.70
22714;DHT22;11524;50.846;4.326;2022-10-16T11:33:00;23.20;58.40
22714;DHT22;11524;50.846;4.326;2022-10-16T11:35:53;23.20;57.70
22714;DHT22;11524;50.846;4.326;2022-10-16T11:38:50;23.10;57.20
22714;DHT22;11524;50.846;4.326;2022-10-16T11:44:38;23.00;56.70
22714;DHT22;11524;50.846;4.326;2022-10-16T11:47:27;23.00;57.20
22714;DHT22;11524;50.846;4.326;2022-10-16T11:53:03;22.90;57.00
22714;DHT22;11524;50.846;4.326;2022-10-16T11:55:40;22.90;57.50
22714;DHT22;11524;50.846;4.326;2022-10-16T11:58:07;22.90;57.00
22714;DHT22;11524;50.846;4.326;2022-10-16T12:00:43;22.90;55.70
22714;DHT22;11524;50.846;4.326;2022-10-16T12:03:22;23.00;57.30
22714;DHT22;11524;50.846;4.326;2022-10-16T12:06:22;22.90;57.30
22714;DHT22;11524;50.846;4.326;2022-10-16T12:08:52;23.00;56.70
22714;DHT22;11524;50.846;4.326;2022-10-16T12:16:38;23.00;56.60
22714;DHT22;11524;50.846;4.326;2022-10-16T12:19:15;23.10;56.70
22714;DHT22;11524;50.846;4.326;2022-10-16T12:21:42;23.00;56.70
22714;DHT22;11524;50.846;4.326;2022-10-16T12:24:21;23.10;56.70
22714;DHT22;11524;50.846;4.326;2022-10-16T12:26:48;23.00;56.70
22714;DHT22;11524;50.846;4.326;2022-10-16T12:29:39;23.00;56.80
22714;DHT22;11524;50.846;4.326;2022-10-16T12:32:28;23.00;56.50
22714;DHT22;11524;50.846;4.326;2022-10-16T12:34:54;23.10;56.40
22714;DHT22;11524;50.846;4.326;2022-10-16T12:37:29;23.10;56.20
22714;DHT22;11524;50.846;4.326;2022-10-16T12:39:56;23.10;55.90
22714;DHT22;11524;50.846;4.326;2022-10-16T12:44:55;23.20;55.50
22714;DHT22;11524;50.846;4.326;2022-10-16T12:47:37;23.10;55.10
22714;DHT22;11524;50.846;4.326;2022-10-16T12:50:03;23.10;55.00
22714;DHT22;11524;50.846;4.326;2022-10-16T12:52:39;23.20;54.60
22714;DHT22;11524;50.846;4.326;2022-10-16T12:55:16;23.10;55.00
22714;DHT22;11524;50.846;4.326;2022-10-16T13:00:44;23.10;54.90
22714;DHT22;11524;50.846;4.326;2022-10-16T13:03:23;23.20;55.40
22714;DHT22;11524;50.846;4.326;2022-10-16T13:06:24;23.20;55.50
22714;DHT22;11524;50.846;4.326;2022-10-16T13:16:59;23.10;56.20
22714;DHT22;11524;50.846;4.326;2022-10-16T13:25:35;23.10;56.80
22714;DHT22;11524;50.846;4.326;2022-10-16T13:28:08;23.10;56.60
22714;DHT22;11524;50.846;4.326;2022-10-16T13:30:52;23.00;56.50
22714;DHT22;11524;50.846;4.326;2022-10-16T13:33:34;23.00;56.20
22714;DHT22;11524;50.846;4.326;2022-10-16T13:36:00;23.10;56.20
22714;DHT22;11524;50.846;4.326;2022-10-16T13:38:30;23.10;55.60
22714;DHT22;11524;50.846;4.326;2022-10-16T13:40:58;23.10;55.60
22714;DHT22;11524;50.846;4.326;2022-10-16T13:43:32;23.10;55.90
22714;DHT22;11524;50.846;4.326;2022-10-16T13:46:05;23.10;55.80
22714;DHT22;11524;50.846;4.326;2022-10-16T13:48:32;23.10;55.60
22714;DHT22;11524;50.846;4.326;2022-10-16T13:51:14;23.10;56.00
22714;DHT22;11524;50.846;4.326;2022-10-16T13:53:41;23.10;55.80
22714;DHT22;11524;50.846;4.326;2022-10-16T13:56:13;23.10;55.70
22714;DHT22;11524;50.846;4.326;2022-10-16T13:58:40;23.10;55.70
22714;DHT22;11524;50.846;4.326;2022-10-16T14:01:34;23.10;55.50
22714;DHT22;11524;50.846;4.326;2022-10-16T14:04:07;23.10;55.80
22714;DHT22;11524;50.846;4.326;2022-10-16T14:06:33;23.10;55.20
22714;DHT22;11524;50.846;4.326;2022-10-16T14:09:09;23.10;55.50
22714;DHT22;11524;50.846;4.326;2022-10-16T14:11:48;23.10;55.40
22714;DHT22;11524;50.846;4.326;2022-10-16T14:14:15;23.10;55.60
22714;DHT22;11524;50.846;4.326;2022-10-16T14:16:42;23.10;55.40
22714;DHT22;11524;50.846;4.326;2022-10-16T14:19:26;23.10;55.50
22714;DHT22;11524;50.846;4.326;2022-10-16T14:21:53;23.10;55.40
22714;DHT22;11524;50.846;4.326;2022-10-16T14:24:34;23.10;55.40
22714;DHT22;11524;50.846;4.326;2022-10-16T14:27:01;23.10;55.40
22714;DHT22;11524;50.846;4.326;2022-10-16T14:29:29;23.10;55.30
22714;DHT22;11524;50.846;4.326;2022-10-16T14:32:06;23.10;55.30
22714;DHT22;11524;50.846;4.326;2022-10-16T14:34:53;23.10;55.20
22714;DHT22;11524;50.846;4.326;2022-10-16T14:37:27;23.20;55.30
22714;DHT22;11524;50.846;4.326;2022-10-16T14:39:54;23.10;55.00
22714;DHT22;11524;50.846;4.326;2022-10-16T14:42:21;23.10;54.90
22714;DHT22;11524;50.846;4.326;2022-10-16T14:44:50;23.20;54.60
22714;DHT22;11524;50.846;4.326;2022-10-16T14:47:22;23.20;54.90
22714;DHT22;11524;50.846;4.326;2022-10-16T14:49:51;23.20;54.50
22714;DHT22;11524;50.846;4.326;2022-10-16T14:52:18;23.20;54.70
22714;DHT22;11524;50.846;4.326;2022-10-16T14:54:47;23.10;55.10
22714;DHT22;11524;50.846;4.326;2022-10-16T14:57:23;23.10;55.40
22714;DHT22;11524;50.846;4.326;2022-10-16T14:59:49;23.10;55.00
22714;DHT22;11524;50.846;4.326;2022-10-16T15:04:46;23.10;55.40
22714;DHT22;11524;50.846;4.326;2022-10-16T15:07:12;23.10;55.60
22714;DHT22;11524;50.846;4.326;2022-10-16T15:09:38;23.10;54.80
22714;DHT22;11524;50.846;4.326;2022-10-16T15:12:03;23.10;55.00
22714;DHT22;11524;50.846;4.326;2022-10-16T15:14:29;23.00;55.40
22714;DHT22;11524;50.846;4.326;2022-10-16T15:16:55;23.10;54.90
22714;DHT22;11524;50.846;4.326;2022-10-16T15:19:20;23.10;55.20
22714;DHT22;11524;50.846;4.326;2022-10-16T15:21:46;23.10;55.10
22714;DHT22;11524;50.846;4.326;2022-10-16T15:24:13;23.10;55.00
22714;DHT22;11524;50.846;4.326;2022-10-16T15:26:39;23.10;55.10
22714;DHT22;11524;50.846;4.326;2022-10-16T15:29:04;23.10;55.10
22714;DHT22;11524;50.846;4.326;2022-10-16T15:31:30;23.10;55.10
22714;DHT22;11524;50.846;4.326;2022-10-16T15:33:56;23.10;55.10
22714;DHT22;11524;50.846;4.326;2022-10-16T15:36:28;23.10;55.30
22714;DHT22;11524;50.846;4.326;2022-10-16T15:38:53;23.10;55.10
22714;DHT22;11524;50.846;4.326;2022-10-16T15:41:20;23.10;55.10
22714;DHT22;11524;50.846;4.326;2022-10-16T15:43:48;23.10;55.00
22714;DHT22;11524;50.846;4.326;2022-10-16T15:46:14;23.20;55.10
22714;DHT22;11524;50.846;4.326;2022-10-16T15:48:40;23.10;55.60
22714;DHT22;11524;50.846;4.326;2022-10-16T15:51:07;23.20;55.50
22714;DHT22;11524;50.846;4.326;2022-10-16T15:53:34;23.20;55.70
22714;DHT22;11524;50.846;4.326;2022-10-16T15:56:08;23.20;55.60
22714;DHT22;11524;50.846;4.326;2022-10-16T15:58:34;23.20;55.60
22714;DHT22;11524;50.846;4.326;2022-10-16T16:01:00;23.20;55.70
22714;DHT22;11524;50.846;4.326;2022-10-16T16:03:27;23.10;55.60
22714;DHT22;11524;50.846;4.326;2022-10-16T16:05:54;23.10;56.10
22714;DHT22;11524;50.846;4.326;2022-10-16T16:08:20;23.10;56.00
22714;DHT22;11524;50.846;4.326;2022-10-16T16:10:56;23.10;56.10
22714;DHT22;11524;50.846;4.326;2022-10-16T16:13:22;23.10;56.30
22714;DHT22;11524;50.846;4.326;2022-10-16T16:15:47;23.10;56.20
22714;DHT22;11524;50.846;4.326;2022-10-16T16:18:13;23.10;56.40
22714;DHT22;11524;50.846;4.326;2022-10-16T16:20:38;23.00;56.20
22714;DHT22;11524;50.846;4.326;2022-10-16T16:23:04;23.00;56.30
22714;DHT22;11524;50.846;4.326;2022-10-16T16:25:29;23.00;56.00
22714;DHT22;11524;50.846;4.326;2022-10-16T16:27:55;23.00;56.60
22714;DHT22;11524;50.846;4.326;2022-10-16T16:30:21;23.00;56.50
22714;DHT22;11524;50.846;4.326;2022-10-16T16:32:46;23.00;59.50
22714;DHT22;11524;50.846;4.326;2022-10-16T16:35:12;23.10;60.80
22714;DHT22;11524;50.846;4.326;2022-10-16T16:37:37;23.00;61.30
22714;DHT22;11524;50.846;4.326;2022-10-16T16:40:03;23.10;61.30
22714;DHT22;11524;50.846;4.326;2022-10-16T16:42:29;23.00;58.50
22714;DHT22;11524;50.846;4.326;2022-10-16T16:44:54;23.00;57.30
22714;DHT22;11524;50.846;4.326;2022-10-16T16:47:20;23.00;57.10
22714;DHT22;11524;50.846;4.326;2022-10-16T16:49:46;23.00;57.00
22714;DHT22;11524;50.846;4.326;2022-10-16T16:52:12;23.00;57.10
22714;DHT22;11524;50.846;4.326;2022-10-16T16:54:38;23.00;57.10
22714;DHT22;11524;50.846;4.326;2022-10-16T16:57:04;22.90;57.00
22714;DHT22;11524;50.846;4.326;2022-10-16T16:59:30;22.90;57.10
22714;DHT22;11524;50.846;4.326;2022-10-16T17:02:01;22.90;57.90
22714;DHT22;11524;50.846;4.326;2022-10-16T17:04:28;22.90;57.20
22714;DHT22;11524;50.846;4.326;2022-10-16T17:06:54;22.90;57.50
22714;DHT22;11524;50.846;4.326;2022-10-16T17:09:21;22.90;57.80
22714;DHT22;11524;50.846;4.326;2022-10-16T17:11:46;22.90;57.90
22714;DHT22;11524;50.846;4.326;2022-10-16T17:14:13;22.90;58.20
22714;DHT22;11524;50.846;4.326;2022-10-16T17:16:40;22.90;58.40
22714;DHT22;11524;50.846;4.326;2022-10-16T17:19:13;22.90;58.60
22714;DHT22;11524;50.846;4.326;2022-10-16T17:21:39;22.90;58.80